createdAt,value
2018-07-05T00:01:20.839Z,17.36
2018-07-05T00:04:02.287Z,17.29
2018-07-05T00:06:43.427Z,17.41
2018-07-05T00:09:24.717Z,17.37
2018-07-05T00:12:05.893Z,17.28
2018-07-05T00:14:47.112Z,17.23
2018-07-05T00:17:28.211Z,17.02
2018-07-05T00:20:10.245Z,16.81
2018-07-05T00:22:51.358Z,16.79
2018-07-05T00:25:32.603Z,16.95
2018-07-05T00:28:13.821Z,16.95
2018-07-05T00:30:55.167Z,16.87
2018-07-05T00:33:36.405Z,16.74
2018-07-05T00:36:17.681Z,16.61
2018-07-05T00:39:00.595Z,16.47
2018-07-05T00:41:41.646Z,16.45
2018-07-05T00:44:23.072Z,16.52
2018-07-05T00:47:05.046Z,16.46
2018-07-05T00:49:46.234Z,16.47
2018-07-05T00:52:27.658Z,16.57
2018-07-05T00:55:09.481Z,16.47
2018-07-05T00:57:50.694Z,16.36
2018-07-05T01:00:31.798Z,16.30
2018-07-05T01:03:12.977Z,16.34
2018-07-05T01:05:54.605Z,16.30
2018-07-05T01:08:36.139Z,16.50
2018-07-05T01:11:17.536Z,16.46
2018-07-05T01:13:58.780Z,16.31
2018-07-05T01:16:40.146Z,16.31
2018-07-05T01:19:21.792Z,16.23
2018-07-05T01:22:03.743Z,16.05
2018-07-05T01:24:45.170Z,16.11
2018-07-05T01:27:26.541Z,16.27
2018-07-05T01:30:08.791Z,16.38
2018-07-05T01:32:50.997Z,16.55
2018-07-05T01:35:32.443Z,16.46
2018-07-05T01:38:13.617Z,16.39
2018-07-05T01:40:55.034Z,16.35
2018-07-05T01:43:36.255Z,16.31
2018-07-05T01:46:18.157Z,16.27
2018-07-05T01:49:00.564Z,16.37
2018-07-05T01:51:42.049Z,16.30
2018-07-05T01:54:23.237Z,16.27
2018-07-05T01:57:04.321Z,16.15
2018-07-05T01:59:45.497Z,16.18
2018-07-05T02:02:26.910Z,16.28
2018-07-05T02:05:08.054Z,16.08
2018-07-05T02:07:49.068Z,16.01
2018-07-05T02:10:30.239Z,16.03
2018-07-05T02:13:11.526Z,16.10
2018-07-05T02:15:52.658Z,16.06
2018-07-05T02:18:33.876Z,16.02
2018-07-05T02:21:15.318Z,16.17
2018-07-05T02:23:56.541Z,16.25
2018-07-05T02:26:37.800Z,16.21
2018-07-05T02:29:20.164Z,16.05
2018-07-05T02:32:01.286Z,15.93
2018-07-05T02:34:42.569Z,15.80
2018-07-05T02:37:28.932Z,15.64
2018-07-05T02:40:10.172Z,15.49
2018-07-05T02:42:51.483Z,15.45
2018-07-05T02:45:32.885Z,15.34
2018-07-05T02:48:14.111Z,15.33
2018-07-05T02:50:55.364Z,15.33
2018-07-05T02:53:36.656Z,15.38
2018-07-05T02:56:18.024Z,15.44
2018-07-05T02:58:59.155Z,15.47
2018-07-05T03:01:40.381Z,15.50
2018-07-05T03:04:21.672Z,15.56
2018-07-05T03:07:03.098Z,15.53
2018-07-05T03:09:44.380Z,15.66
2018-07-05T03:12:25.590Z,15.73
2018-07-05T03:15:08.480Z,15.76
2018-07-05T03:17:50.457Z,15.76
2018-07-05T03:20:32.250Z,15.65
2018-07-05T03:23:13.663Z,15.68
2018-07-05T03:25:54.816Z,15.64
2018-07-05T03:28:35.898Z,15.62
2018-07-05T03:31:17.160Z,15.57
2018-07-05T03:33:58.404Z,15.48
2018-07-05T03:36:39.651Z,15.59
2018-07-05T03:39:21.195Z,15.56
2018-07-05T03:42:03.450Z,15.60
2018-07-05T03:44:45.138Z,15.77
2018-07-05T03:47:26.471Z,15.83
2018-07-05T03:50:08.778Z,15.89
2018-07-05T03:52:50.182Z,15.84
2018-07-05T03:55:31.391Z,15.79
2018-07-05T03:58:12.768Z,15.77
2018-07-05T04:00:54.135Z,15.77
2018-07-05T04:03:35.655Z,15.90
2018-07-05T04:06:17.702Z,16.12
2018-07-05T04:08:59.088Z,16.23
2018-07-05T04:11:40.538Z,16.40
2018-07-05T04:14:22.216Z,16.49
2018-07-05T04:17:03.615Z,16.48
2018-07-05T04:19:48.397Z,16.51
2018-07-05T04:22:29.567Z,16.57
2018-07-05T04:25:12.085Z,16.57
2018-07-05T04:27:53.457Z,16.66
2018-07-05T04:30:34.801Z,16.74
2018-07-05T04:33:15.950Z,16.82
2018-07-05T04:35:57.460Z,16.95
2018-07-05T04:38:38.845Z,16.95
2018-07-05T04:41:20.577Z,17.08
2018-07-05T04:44:01.769Z,17.16
2018-07-05T04:46:43.059Z,17.38
2018-07-05T04:49:24.947Z,17.59
2018-07-05T04:52:06.231Z,17.65
2018-07-05T04:54:49.249Z,17.73
2018-07-05T04:57:30.409Z,17.80
2018-07-05T05:00:11.863Z,17.85
2018-07-05T05:02:52.908Z,17.99
2018-07-05T05:05:34.390Z,18.22
2018-07-05T05:08:18.266Z,18.46
2018-07-05T05:11:01.442Z,18.63
2018-07-05T05:13:42.958Z,18.75
2018-07-05T05:16:24.083Z,19.00
2018-07-05T05:19:05.132Z,19.07
2018-07-05T05:21:46.280Z,19.25
2018-07-05T05:24:27.729Z,19.21
2018-07-05T05:27:08.892Z,19.34
2018-07-05T05:29:49.984Z,19.59
2018-07-05T05:32:33.009Z,19.85
2018-07-05T05:35:14.024Z,20.11
2018-07-05T05:37:59.502Z,20.24
2018-07-05T05:40:40.780Z,20.37
2018-07-05T05:48:58.472Z,20.52
2018-07-05T05:51:40.410Z,20.85
2018-07-05T05:54:22.020Z,21.11
2018-07-05T05:57:03.578Z,21.09
2018-07-05T05:59:45.619Z,21.21
2018-07-05T06:02:27.852Z,21.53
2018-07-05T06:05:09.190Z,21.69
2018-07-05T06:07:50.472Z,21.94
2018-07-05T06:10:31.695Z,21.98
2018-07-05T06:13:13.605Z,22.14
2018-07-05T06:15:55.517Z,22.43
2018-07-05T06:18:37.043Z,22.66
2018-07-05T06:21:18.513Z,22.83
2018-07-05T06:24:04.712Z,22.99
2018-07-05T06:26:46.189Z,23.14
2018-07-05T06:29:29.952Z,23.21
2018-07-05T06:32:11.062Z,23.65
2018-07-05T06:34:52.224Z,23.61
2018-07-05T06:37:33.509Z,23.78
2018-07-05T06:40:14.845Z,24.05
2018-07-05T06:42:56.062Z,23.91
2018-07-05T06:45:37.644Z,24.21
2018-07-05T06:48:18.924Z,24.30
2018-07-05T06:51:03.263Z,24.71
2018-07-05T06:53:44.542Z,24.62
2018-07-05T06:56:25.940Z,24.34
2018-07-05T06:59:07.164Z,24.65
2018-07-05T07:01:48.950Z,24.94
2018-07-05T07:04:30.602Z,25.19
2018-07-05T07:07:12.080Z,25.58
2018-07-05T07:09:53.065Z,25.55
2018-07-05T07:12:34.304Z,25.78
2018-07-05T07:15:15.621Z,25.91
2018-07-05T07:17:57.051Z,26.50
2018-07-05T07:20:38.425Z,26.62
2018-07-05T07:23:19.782Z,26.17
2018-07-05T07:26:01.430Z,26.11
2018-07-05T07:28:43.577Z,26.26
2018-07-05T07:31:24.943Z,27.35
2018-07-05T07:34:05.936Z,27.14
2018-07-05T07:36:48.210Z,27.06
2018-07-05T07:39:29.551Z,27.21
2018-07-05T07:41:58.953Z,27.66
2018-07-05T07:44:27.886Z,28.08
2018-07-05T07:46:57.797Z,28.37
2018-07-05T07:49:27.160Z,28.89
2018-07-05T07:51:56.857Z,28.94
2018-07-05T07:54:26.361Z,29.22
2018-07-05T07:56:55.581Z,28.96
2018-07-05T07:59:25.599Z,28.56
2018-07-05T08:01:54.929Z,28.69
2018-07-05T08:04:24.147Z,28.87
2018-07-05T08:06:53.211Z,29.22
2018-07-05T08:09:23.013Z,28.91
2018-07-05T08:11:52.865Z,29.11
2018-07-05T08:14:22.005Z,29.64
2018-07-05T08:16:51.735Z,29.59
2018-07-05T08:19:20.993Z,30.08
2018-07-05T08:21:50.942Z,30.68
2018-07-05T08:24:19.929Z,29.85
2018-07-05T08:26:48.913Z,30.24
2018-07-05T08:29:18.963Z,29.65
2018-07-05T08:31:47.927Z,31.10
2018-07-05T08:34:18.246Z,31.40
2018-07-05T08:36:48.519Z,30.82
2018-07-05T08:39:18.507Z,31.54
2018-07-05T08:41:48.491Z,32.05
2018-07-05T08:44:17.443Z,32.34
2018-07-05T08:46:46.541Z,33.12
2018-07-05T08:49:15.977Z,32.87
2018-07-05T08:51:45.961Z,32.53
2018-07-05T08:54:15.480Z,33.33
2018-07-05T08:56:46.077Z,34.20
2018-07-05T08:59:15.356Z,33.78
2018-07-05T09:01:45.596Z,33.42
2018-07-05T09:04:14.776Z,34.26
2018-07-05T09:06:45.418Z,33.42
2018-07-05T09:09:15.097Z,34.11
2018-07-05T09:11:45.160Z,33.96
2018-07-05T09:14:14.757Z,34.14
2018-07-05T09:16:44.020Z,35.31
2018-07-05T09:19:13.390Z,33.81
2018-07-05T09:21:42.995Z,33.29
2018-07-05T09:24:14.180Z,33.99
2018-07-05T09:26:43.796Z,33.43
2018-07-05T09:29:13.670Z,33.55
2018-07-05T09:31:43.020Z,33.93
2018-07-05T09:34:13.317Z,33.31
2018-07-05T09:36:42.320Z,32.78
2018-07-05T09:41:55.388Z,32.83
2018-07-05T09:44:24.802Z,31.95
2018-07-05T09:46:54.140Z,32.01
2018-07-05T09:49:23.743Z,33.63
2018-07-05T09:51:53.660Z,33.41
2018-07-05T09:54:23.558Z,34.35
2018-07-05T09:56:53.755Z,34.99
2018-07-05T09:59:23.030Z,34.99
2018-07-05T10:01:52.938Z,37.29
2018-07-05T10:04:23.010Z,36.24
2018-07-05T10:06:52.653Z,37.56
2018-07-05T10:09:21.652Z,36.92
2018-07-05T10:11:51.232Z,34.69
2018-07-05T10:14:22.081Z,34.42
2018-07-05T10:16:51.193Z,34.72
2018-07-05T10:19:21.466Z,34.40
2018-07-05T10:21:51.226Z,35.38
2018-07-05T10:24:20.567Z,35.95
2018-07-05T10:26:49.666Z,34.23
2018-07-05T10:29:31.571Z,34.45
2018-07-05T10:32:12.858Z,34.35
2018-07-05T10:34:41.982Z,34.88
2018-07-05T10:37:11.414Z,35.20
2018-07-05T10:39:40.418Z,36.79
2018-07-05T10:42:22.703Z,36.52
2018-07-05T10:45:04.212Z,36.48
2018-07-05T10:47:45.329Z,36.03
2018-07-05T10:50:26.470Z,35.54
2018-07-05T10:53:07.802Z,36.49
2018-07-05T10:55:49.052Z,36.75
2018-07-05T10:58:30.272Z,36.26
2018-07-05T11:01:15.952Z,36.85
2018-07-05T11:03:57.345Z,38.27
2018-07-05T11:06:39.172Z,37.19
2018-07-05T11:09:20.307Z,35.93
2018-07-05T11:12:01.594Z,36.68
2018-07-05T11:14:46.806Z,36.50
2018-07-05T11:17:31.324Z,35.50
2018-07-05T11:20:12.669Z,34.89
2018-07-05T11:22:54.235Z,36.26
2018-07-05T11:25:35.508Z,37.30
2018-07-05T11:28:16.792Z,38.90
2018-07-05T11:30:58.150Z,37.98
2018-07-05T11:33:39.298Z,39.24
2018-07-05T11:36:20.824Z,40.55
2018-07-05T11:39:02.887Z,40.00
2018-07-05T11:41:44.083Z,40.05
2018-07-05T11:44:26.474Z,39.91
2018-07-05T11:47:07.732Z,39.04
2018-07-05T11:49:49.199Z,37.89
2018-07-05T11:52:30.682Z,38.31
2018-07-05T11:55:11.962Z,40.70
2018-07-05T11:57:53.461Z,41.38
2018-07-05T12:00:34.834Z,45.18
2018-07-05T12:03:16.069Z,38.34
2018-07-05T12:05:57.183Z,34.41
2018-07-05T12:08:38.637Z,33.05
2018-07-05T12:11:20.551Z,32.18
2018-07-05T12:14:01.798Z,32.55
2018-07-05T12:16:43.047Z,31.51
2018-07-05T12:19:24.404Z,31.20
2018-07-05T12:22:05.841Z,31.18
2018-07-05T12:24:47.333Z,30.79
2018-07-05T12:27:29.213Z,30.51
2018-07-05T12:30:11.538Z,29.87
2018-07-05T12:32:52.826Z,29.73
2018-07-05T12:35:34.605Z,29.78
2018-07-05T12:38:15.941Z,28.91
2018-07-05T12:40:57.511Z,29.11
2018-07-05T12:43:38.832Z,29.30
2018-07-05T12:46:20.121Z,28.83
2018-07-05T12:49:01.247Z,28.44
2018-07-05T12:51:42.286Z,28.22
2018-07-05T12:54:24.183Z,27.94
2018-07-05T12:57:05.240Z,28.20
2018-07-05T12:59:46.440Z,28.52
2018-07-05T13:02:27.995Z,29.00
2018-07-05T13:05:09.555Z,29.05
2018-07-05T13:07:50.893Z,29.21
2018-07-05T13:10:32.528Z,29.39
2018-07-05T13:13:13.724Z,30.05
2018-07-05T13:15:55.097Z,30.57
2018-07-05T13:18:36.309Z,30.65
2018-07-05T13:21:18.497Z,30.47
2018-07-05T13:24:00.107Z,29.78
2018-07-05T13:26:42.069Z,29.43
2018-07-05T13:29:25.483Z,28.38
2018-07-05T13:32:06.694Z,27.05
2018-07-05T13:34:47.860Z,24.77
2018-07-05T13:37:29.043Z,23.67
2018-07-05T13:40:10.309Z,23.33
2018-07-05T13:42:51.435Z,22.78
2018-07-05T13:45:33.089Z,22.12
2018-07-05T13:48:14.212Z,21.37
2018-07-05T13:50:55.685Z,20.68
2018-07-05T13:53:37.706Z,19.55
2018-07-05T13:56:18.913Z,18.24
2018-07-05T13:58:59.996Z,17.46
2018-07-05T14:01:41.405Z,16.82
2018-07-05T14:04:22.574Z,16.41
2018-07-05T14:07:03.980Z,16.06
2018-07-05T14:09:45.296Z,16.19
2018-07-05T14:12:27.503Z,15.91
2018-07-05T14:15:08.802Z,16.26
2018-07-05T14:17:50.581Z,16.42
2018-07-05T14:20:32.024Z,16.26
2018-07-05T14:23:13.057Z,16.60
2018-07-05T14:25:56.497Z,16.71
2018-07-05T14:28:37.565Z,16.86
2018-07-05T14:31:19.018Z,16.97
2018-07-05T14:34:00.315Z,16.95
2018-07-05T14:36:42.568Z,17.05
2018-07-05T14:39:24.017Z,17.20
2018-07-05T14:42:05.716Z,17.20
2018-07-05T14:44:46.848Z,17.20
2018-07-05T14:47:28.724Z,17.11
2018-07-05T14:50:10.256Z,17.20
2018-07-05T14:52:51.668Z,17.16
2018-07-05T14:55:32.813Z,17.22
2018-07-05T14:58:13.992Z,17.18
2018-07-05T15:00:55.748Z,17.31
2018-07-05T15:03:37.625Z,17.35
2018-07-05T15:06:18.801Z,17.35
2018-07-05T15:09:00.150Z,17.39
2018-07-05T15:11:41.550Z,17.47
2018-07-05T15:14:24.652Z,17.45
2018-07-05T15:17:06.479Z,17.45
2018-07-05T15:19:47.816Z,17.47
2018-07-05T15:22:30.262Z,17.44
2018-07-05T15:25:11.520Z,17.46
2018-07-05T15:27:52.650Z,17.51
2018-07-05T15:30:33.971Z,17.78
2018-07-05T15:33:27.220Z,17.74
2018-07-05T15:36:14.602Z,17.74
2018-07-05T15:38:55.914Z,17.76
2018-07-05T15:41:37.300Z,17.91
2018-07-05T15:44:19.213Z,18.00
2018-07-05T15:49:47.802Z,18.00
2018-07-05T15:52:30.428Z,18.01
2018-07-05T15:55:12.510Z,18.07
2018-07-05T15:57:54.337Z,18.16
2018-07-05T16:00:36.030Z,18.26
2018-07-05T16:03:24.846Z,18.28
2018-07-05T16:06:06.445Z,18.29
2018-07-05T16:08:48.967Z,18.03
2018-07-05T16:11:31.176Z,18.18
2018-07-05T16:14:13.024Z,18.17
2018-07-05T16:16:57.552Z,18.22
2018-07-05T16:19:40.807Z,18.21
2018-07-05T16:22:22.630Z,18.06
2018-07-05T16:25:04.769Z,18.02
2018-07-05T16:27:46.954Z,18.17
2018-07-05T16:30:28.447Z,18.20
2018-07-05T16:33:09.949Z,18.07
2018-07-05T16:35:51.525Z,18.09
2018-07-05T16:38:32.679Z,18.19
2018-07-05T16:41:13.946Z,18.27
2018-07-05T16:43:56.129Z,18.34
2018-07-05T16:46:37.601Z,18.35
2018-07-05T16:49:18.920Z,18.30
2018-07-05T16:52:00.593Z,18.36
2018-07-05T16:54:41.931Z,18.39
2018-07-05T16:57:23.069Z,18.36
2018-07-05T17:00:04.844Z,18.40
2018-07-05T17:02:46.778Z,18.39
2018-07-05T17:05:28.060Z,18.41
2018-07-05T17:08:10.290Z,18.43
2018-07-05T17:10:51.405Z,18.41
2018-07-05T17:13:33.029Z,18.39
2018-07-05T17:16:15.052Z,18.41
2018-07-05T17:18:56.307Z,18.37
2018-07-05T17:21:38.475Z,18.30
2018-07-05T17:24:19.652Z,18.37
2018-07-05T17:27:00.832Z,18.36
2018-07-05T17:29:42.107Z,18.37
2018-07-05T17:32:23.246Z,18.43
2018-07-05T17:35:05.358Z,18.32
2018-07-05T17:37:46.484Z,18.34
2018-07-05T17:40:28.521Z,18.34
2018-07-05T17:43:09.851Z,18.37
2018-07-05T17:45:51.840Z,18.36
2018-07-05T17:48:33.213Z,18.32
2018-07-05T17:51:16.212Z,18.28
2018-07-05T17:53:57.520Z,18.29
2018-07-05T17:56:39.066Z,18.26
2018-07-05T17:59:20.147Z,18.20
2018-07-05T18:02:02.405Z,18.14
2018-07-05T18:04:45.091Z,18.10
2018-07-05T18:07:26.776Z,18.12
2018-07-05T18:10:08.348Z,18.20
2018-07-05T18:12:49.478Z,18.24
2018-07-05T18:15:30.913Z,18.23
2018-07-05T18:18:12.312Z,18.24
2018-07-05T18:20:53.650Z,18.24
2018-07-05T18:23:35.050Z,18.23
2018-07-05T18:26:16.800Z,18.16
2018-07-05T18:28:58.200Z,18.14
2018-07-05T18:31:39.468Z,18.13
2018-07-05T18:34:21.286Z,18.09
2018-07-05T18:37:02.836Z,18.11
2018-07-05T18:39:44.156Z,18.12
2018-07-05T18:42:25.378Z,18.01
2018-07-05T18:45:06.620Z,18.05
2018-07-05T18:47:47.808Z,18.03
2018-07-05T18:50:28.858Z,17.93
2018-07-05T18:53:09.986Z,17.94
2018-07-05T18:55:51.297Z,17.86
2018-07-05T18:58:32.559Z,17.84
2018-07-05T19:01:14.070Z,17.84
2018-07-05T19:03:55.528Z,17.81
2018-07-05T19:06:37.182Z,17.80
2018-07-05T19:09:19.814Z,17.73
2018-07-05T19:12:01.330Z,17.68
2018-07-05T19:14:42.679Z,17.67
2018-07-05T19:17:24.072Z,17.66
2018-07-05T19:20:05.403Z,17.60
2018-07-05T19:22:47.512Z,17.64
2018-07-05T19:25:28.729Z,17.59
2018-07-05T19:28:10.354Z,17.61
2018-07-05T19:30:52.019Z,17.58
2018-07-05T19:33:33.286Z,17.59
2018-07-05T19:36:15.958Z,17.66
2018-07-05T19:38:57.744Z,17.71
2018-07-05T19:41:39.034Z,17.70
2018-07-05T19:44:20.258Z,17.76
2018-07-05T19:47:01.586Z,17.80
2018-07-05T19:49:42.815Z,17.82
2018-07-05T19:52:23.967Z,17.75
2018-07-05T19:55:05.235Z,17.74
2018-07-05T19:57:46.284Z,17.84
2018-07-05T20:00:27.771Z,17.76
2018-07-05T20:03:09.154Z,17.76
2018-07-05T20:05:50.369Z,17.75
2018-07-05T20:08:33.803Z,17.92
2018-07-05T20:11:15.528Z,17.98
2018-07-05T20:13:57.068Z,17.92
2018-07-05T20:16:38.383Z,17.85
2018-07-05T20:19:20.543Z,17.85
2018-07-05T20:22:02.474Z,17.95
2018-07-05T20:24:43.642Z,17.92
2018-07-05T20:27:25.575Z,17.93
2018-07-05T20:30:16.432Z,17.95
2018-07-05T20:32:59.050Z,17.93
2018-07-05T20:35:40.499Z,18.02
2018-07-05T20:38:22.212Z,18.01
2018-07-05T20:41:03.433Z,17.99
2018-07-05T20:43:45.513Z,18.01
2018-07-05T20:46:27.256Z,18.01
2018-07-05T20:49:08.654Z,18.04
2018-07-05T20:51:50.495Z,18.11
2018-07-05T20:54:31.697Z,18.12
2018-07-05T20:57:12.973Z,18.13
2018-07-05T20:59:54.587Z,18.09
2018-07-05T21:02:35.880Z,18.11
2018-07-05T21:05:17.182Z,18.13
2018-07-05T21:07:59.076Z,18.12
2018-07-05T21:10:40.396Z,18.14
2018-07-05T21:13:22.915Z,18.14
2018-07-05T21:16:04.902Z,18.12
2018-07-05T21:18:46.135Z,18.11
2018-07-05T21:21:27.463Z,18.07
2018-07-05T21:24:09.017Z,17.99
2018-07-05T21:26:50.165Z,18.09
2018-07-05T21:29:31.608Z,18.10
2018-07-05T21:32:13.818Z,18.05
2018-07-05T21:34:55.729Z,18.08
2018-07-05T21:37:37.616Z,18.12
2018-07-05T21:40:18.739Z,18.09
2018-07-05T21:43:00.682Z,18.13
2018-07-05T21:45:42.328Z,18.11
2018-07-05T21:48:23.873Z,18.07
2018-07-05T21:51:06.142Z,18.08
2018-07-05T21:53:47.934Z,18.05
2018-07-05T21:56:29.171Z,18.06
2018-07-05T21:59:10.620Z,18.02
2018-07-05T22:01:52.233Z,18.01
2018-07-05T22:04:33.591Z,18.09
2018-07-05T22:07:15.937Z,17.97
2018-07-05T22:09:57.504Z,17.97
2018-07-05T22:12:39.001Z,17.92
2018-07-05T22:15:21.982Z,17.91
2018-07-05T22:18:13.401Z,17.97
2018-07-05T22:21:01.642Z,17.90
2018-07-05T22:25:53.063Z,17.92
2018-07-05T22:28:39.399Z,17.85
2018-07-05T22:31:25.718Z,17.83
2018-07-05T22:34:07.044Z,17.81
2018-07-05T22:36:48.210Z,17.83
2018-07-05T22:39:29.504Z,17.81
2018-07-05T22:42:10.735Z,17.82
2018-07-05T22:44:52.585Z,17.76
2018-07-05T22:47:34.253Z,17.75
2018-07-05T22:50:16.606Z,17.71
2018-07-05T22:52:58.293Z,17.71
2018-07-05T22:55:40.305Z,17.65
2018-07-05T22:58:22.409Z,17.63
2018-07-05T23:01:03.629Z,17.60
2018-07-05T23:03:45.078Z,17.63
2018-07-05T23:06:26.397Z,17.61
2018-07-05T23:09:09.348Z,17.52
2018-07-05T23:11:50.487Z,17.47
2018-07-05T23:14:32.426Z,17.47
2018-07-05T23:17:13.806Z,17.48
2018-07-05T23:19:56.602Z,17.41
2018-07-05T23:22:37.862Z,17.40
2018-07-05T23:25:19.802Z,17.32
2018-07-05T23:28:01.108Z,17.40
2018-07-05T23:30:44.786Z,17.49
2018-07-05T23:33:29.143Z,17.51
2018-07-05T23:36:10.377Z,17.51
2018-07-05T23:38:52.298Z,17.55
2018-07-05T23:41:33.541Z,17.58
2018-07-05T23:44:15.420Z,17.58
2018-07-05T23:46:57.091Z,17.54
2018-07-05T23:49:38.622Z,17.61
2018-07-05T23:52:19.727Z,17.58
2018-07-05T23:55:00.996Z,17.59
2018-07-05T23:57:43.261Z,17.63
